Time;durP1;ratioP1;P1;durP2;ratioP2;P2;SDS_P1;SDS_P2;PMS_P1;PMS_P2;Temp;Humidity;BMP_temperature;BMP_pressure;BME280_temperature;BME280_humidity;BME280_pressure;Samples;Min_cycle;Max_cycle;Signal;HPM_P1;HPM_P2
2023/08/24 00:08:04;;;;;;;13.70;8.37;;;;;;;17.56;63.01;100391.06;30609911;28;97160;-73
2023/08/24 00:23:04;;;;;;;7.80;5.37;;;;;;;17.39;63.74;100401.44;30608315;28;97163;-72
2023/08/24 00:38:06;;;;;;;9.10;5.30;;;;;;;17.38;64.57;100396.25;30606075;28;97273;-73
2023/08/24 00:53:06;;;;;;;7.85;4.63;;;;;;;17.25;65.00;100403.31;30605473;28;102547;-68
2023/08/24 01:08:06;;;;;;;12.20;4.72;;;;;;;17.10;65.09;100397.34;30603407;28;97222;-74
2023/08/24 01:23:18;;;;;;;7.15;4.28;;;;;;;16.90;66.05;100403.53;30601130;28;96865;-74
2023/08/24 01:38:18;;;;;;;7.93;4.27;;;;;;;16.75;66.44;100400.19;30600530;28;96954;-74
2023/08/24 01:53:19;;;;;;;7.78;4.07;;;;;;;16.72;67.18;100387.16;30599459;28;96834;-72
2023/08/24 02:08:19;;;;;;;6.87;4.07;;;;;;;16.72;67.35;100392.56;30598544;28;97061;-73
2023/08/24 02:23:20;;;;;;;7.93;4.50;;;;;;;16.66;67.57;100382.59;30595975;28;106703;-73
2023/08/24 02:38:20;;;;;;;9.90;4.32;;;;;;;16.58;67.91;100381.78;30595209;28;107313;-72
2023/08/24 02:53:20;;;;;;;6.55;4.65;;;;;;;16.46;68.38;100372.66;30594466;28;97177;-66
2023/08/24 03:08:21;;;;;;;12.95;5.18;;;;;;;16.45;69.47;100384.44;30611877;28;111875;-74
2023/08/24 03:23:21;;;;;;;10.80;5.38;;;;;;;16.48;69.29;100369.75;30610885;28;112255;-71
2023/08/24 03:38:22;;;;;;;9.30;5.15;;;;;;;16.47;69.75;100368.94;30608551;28;97515;-73
2023/08/24 03:53:23;;;;;;;11.75;5.57;;;;;;;16.49;69.70;100376.81;30581640;28;102652;-67
2023/08/24 04:08:23;;;;;;;7.93;5.57;;;;;;;16.44;70.08;100374.72;30591032;28;97307;-73
2023/08/24 04:23:27;;;;;;;12.68;5.70;;;;;;;16.66;70.36;100388.81;30594089;28;97243;-74
2023/08/24 04:38:27;;;;;;;8.13;5.40;;;;;;;16.98;70.27;100413.28;30593284;28;97280;-70
2023/08/24 04:53:28;;;;;;;10.23;5.97;;;;;;;17.32;69.88;100418.63;30600460;28;108739;-75
2023/08/24 05:08:29;;;;;;;10.15;5.55;;;;;;;17.73;69.59;100409.44;30601613;28;97320;-73
2023/08/24 05:23:30;;;;;;;7.93;6.10;;;;;;;18.30;68.82;100416.91;30600458;28;97962;-69
2023/08/24 05:38:30;;;;;;;8.87;5.33;;;;;;;19.03;67.83;100424.53;30597994;28;97314;-66
2023/08/24 05:53:30;;;;;;;9.07;5.15;;;;;;;19.78;65.96;100420.88;30594741;28;96994;-70
2023/08/24 06:08:31;;;;;;;10.03;6.47;;;;;;;20.72;64.99;100435.09;30593251;28;97648;-69
2023/08/24 06:23:32;;;;;;;9.32;3.60;;;;;;;21.79;61.55;100434.09;30589916;28;97019;-67
2023/08/24 06:38:32;;;;;;;8.03;3.53;;;;;;;22.84;58.77;100430.41;30589211;28;97547;-64
2023/08/24 06:53:32;;;;;;;5.30;3.92;;;;;;;23.76;56.05;100411.09;30588880;28;104657;-70
2023/08/24 07:08:34;;;;;;;7.35;3.63;;;;;;;24.53;53.33;100420.13;30589668;28;107437;-68
2023/08/24 07:23:34;;;;;;;6.20;3.47;;;;;;;25.63;50.23;100413.34;30588998;28;97918;-65
2023/08/24 07:38:34;;;;;;;5.20;2.95;;;;;;;26.66;47.48;100410.91;30587055;28;97124;-74
2023/08/24 07:53:35;;;;;;;5.70;3.20;;;;;;;27.67;44.84;100423.94;30601801;28;102907;-75
2023/08/24 08:08:35;;;;;;;6.88;3.00;;;;;;;28.52;42.16;100430.38;30606297;28;112765;-77
2023/08/24 08:23:35;;;;;;;7.25;2.70;;;;;;;29.02;41.04;100435.75;30604791;28;98066;-73
2023/08/24 08:38:36;;;;;;;5.93;1.70;;;;;;;30.80;37.35;100423.16;30602966;28;104412;-77
2023/08/24 08:53:36;;;;;;;6.57;2.00;;;;;;;32.20;34.21;100431.19;30601174;28;102343;-78
2023/08/24 09:08:37;;;;;;;7.30;2.15;;;;;;;37.31;28.46;100431.09;30599587;28;96752;-74
2023/08/24 09:23:44;;;;;;;3.57;1.40;;;;;;;45.40;19.20;100429.06;30598684;28;97500;-77
2023/08/24 09:38:48;;;;;;;2.67;1.37;;;;;;;48.92;16.34;100406.75;30600782;28;97101;-69
2023/08/24 09:53:49;;;;;;;4.53;1.50;;;;;;;50.68;15.06;100395.91;30597835;28;97518;-75
2023/08/24 10:08:54;;;;;;;4.53;1.80;;;;;;;50.62;13.44;100365.25;30593862;28;114873;-68
2023/08/24 10:23:58;;;;;;;4.77;1.60;;;;;;;47.86;14.72;100349.38;30594366;28;97464;-69
2023/08/24 10:39:05;;;;;;;4.97;1.73;;;;;;;43.88;17.43;100340.97;30592581;28;97406;-72
2023/08/24 10:54:05;;;;;;;3.43;1.77;;;;;;;41.95;19.08;100334.16;30592244;28;97913;-73
2023/08/24 11:09:14;;;;;;;4.35;1.45;;;;;;;37.91;22.10;100314.66;30591447;28;97216;-68
2023/08/24 11:24:17;;;;;;;4.50;2.10;;;;;;;37.07;23.15;100300.19;30596740;28;97833;-66
2023/08/24 11:39:19;;;;;;;5.43;2.10;;;;;;;35.75;24.66;100275.75;30609731;28;97042;-69
2023/08/24 11:54:20;;;;;;;4.23;1.77;;;;;;;34.87;25.11;100247.00;30603113;28;98028;-69
2023/08/24 12:09:21;;;;;;;5.83;1.80;;;;;;;34.47;25.86;100250.09;30608720;28;96804;-70
2023/08/24 12:24:21;;;;;;;3.88;2.00;;;;;;;33.55;25.86;100244.47;30601176;28;97175;-71
2023/08/24 12:39:22;;;;;;;4.10;2.22;;;;;;;33.23;26.39;100240.16;30600502;28;97218;-71
2023/08/24 12:54:24;;;;;;;5.13;2.00;;;;;;;33.55;26.45;100224.31;30595260;28;110701;-72
2023/08/24 13:09:25;;;;;;;5.80;1.90;;;;;;;32.93;27.46;100219.81;30609406;28;97734;-67
2023/08/24 13:24:25;;;;;;;6.50;2.17;;;;;;;32.93;27.31;100217.88;30594241;28;97264;-67
2023/08/24 13:39:29;;;;;;;4.80;1.98;;;;;;;33.41;26.74;100183.06;30593979;28;101201;-69
2023/08/24 13:54:30;;;;;;;7.17;2.20;;;;;;;32.73;28.04;100158.59;30594252;28;97189;-72
2023/08/24 14:09:30;;;;;;;4.90;2.10;;;;;;;32.89;29.14;100150.69;30595492;28;96803;-68
2023/08/24 14:24:31;;;;;;;8.10;2.22;;;;;;;32.88;28.93;100138.84;30594422;28;97256;-73
2023/08/24 14:39:31;;;;;;;4.22;1.90;;;;;;;32.03;29.69;100103.97;30593013;28;97405;-69
2023/08/24 14:54:31;;;;;;;6.78;1.92;;;;;;;31.00;30.99;100098.22;30598076;28;110965;-71
2023/08/24 15:09:32;;;;;;;5.07;2.15;;;;;;;29.84;32.78;100077.16;30611627;28;110256;-78
2023/08/24 15:24:32;;;;;;;4.40;2.40;;;;;;;29.45;33.36;100050.94;30610836;28;102683;-74
2023/08/24 15:39:37;;;;;;;6.50;2.28;;;;;;;28.95;34.54;100040.47;30605935;28;101185;-68
2023/08/24 15:54:38;;;;;;;7.90;2.70;;;;;;;28.03;35.76;100029.56;30606093;28;97306;-71
2023/08/24 16:09:39;;;;;;;4.83;2.03;;;;;;;27.83;36.76;100021.53;30604575;28;97492;-72
2023/08/24 16:24:39;;;;;;;3.60;2.25;;;;;;;27.42;37.71;100032.88;30603732;28;109291;-66
2023/08/24 16:39:39;;;;;;;7.53;2.50;;;;;;;27.17;39.00;100031.94;30603825;28;96791;-74
2023/08/24 16:54:40;;;;;;;8.27;2.50;;;;;;;26.98;39.61;100051.78;30603264;28;96793;-75
2023/08/24 17:09:40;;;;;;;8.10;2.58;;;;;;;26.62;40.75;100051.94;30600648;28;96847;-71
2023/08/24 17:24:40;;;;;;;6.07;2.67;;;;;;;26.18;41.99;100036.28;30598410;28;109839;-72
2023/08/24 17:39:41;;;;;;;10.80;3.75;;;;;;;25.75;43.53;100024.91;30598348;28;113606;-73
2023/08/24 17:54:41;;;;;;;12.40;3.85;;;;;;;25.25;45.29;100028.19;30598524;28;97431;-71
2023/08/24 18:09:41;;;;;;;8.32;3.67;;;;;;;24.73;47.27;100034.63;30596081;28;111552;-76
2023/08/24 18:24:43;;;;;;;9.38;3.42;;;;;;;24.28;48.19;100032.28;30593064;28;97401;-74
2023/08/24 18:39:43;;;;;;;8.57;4.17;;;;;;;23.91;49.65;100033.19;30591404;28;99076;-66
2023/08/24 18:54:45;;;;;;;9.25;3.92;;;;;;;23.53;50.94;100035.06;30592338;28;96903;-68
2023/08/24 19:09:45;;;;;;;12.40;4.77;;;;;;;23.19;52.48;100026.38;30592018;28;97220;-70
2023/08/24 19:24:45;;;;;;;7.63;4.88;;;;;;;22.87;53.68;100016.25;30590750;28;97520;-75
2023/08/24 19:39:46;;;;;;;9.38;5.53;;;;;;;22.55;54.68;100001.53;30592084;28;103954;-68
2023/08/24 19:54:46;;;;;;;;;;;;;;;22.20;55.82;100002.72;30608276;28;104084;-71
2023/08/24 20:09:46;;;;;;;13.07;6.50;;;;;;;21.91;56.98;99996.63;30608632;28;97624;-73
2023/08/24 20:24:47;;;;;;;14.40;8.47;;;;;;;21.74;57.54;99996.69;30605719;28;96830;-73
2023/08/24 20:39:47;;;;;;;14.03;6.83;;;;;;;21.52;58.34;99988.47;30604986;28;107240;-69
2023/08/24 20:54:47;;;;;;;20.33;7.53;;;;;;;21.26;58.91;99977.22;30605080;28;114093;-69
2023/08/24 21:09:48;;;;;;;8.63;6.33;;;;;;;21.07;59.87;99938.72;30602843;28;97040;-72
2023/08/24 21:24:48;;;;;;;10.10;7.23;;;;;;;20.78;60.57;99909.00;30601590;28;105663;-74
2023/08/24 21:39:48;;;;;;;9.33;6.30;;;;;;;20.46;61.44;99880.56;30600719;28;97261;-75
2023/08/24 21:54:49;;;;;;;11.33;6.30;;;;;;;20.25;62.22;99856.91;30599941;28;101273;-75
2023/08/24 22:09:49;;;;;;;13.60;8.67;;;;;;;20.08;63.07;99829.81;30597378;28;108573;-75
2023/08/24 22:24:49;;;;;;;9.47;6.20;;;;;;;19.94;63.49;99846.34;30598024;28;105251;-71
2023/08/24 22:39:51;;;;;;;9.33;6.23;;;;;;;19.83;63.84;99846.38;30596488;28;97167;-71
2023/08/24 22:54:51;;;;;;;9.13;6.17;;;;;;;19.72;64.26;99870.44;30594585;28;96684;-75
2023/08/24 23:09:53;;;;;;;8.10;6.27;;;;;;;19.72;64.68;99859.63;30593919;28;96735;-77
2023/08/24 23:24:53;;;;;;;13.50;7.57;;;;;;;19.68;64.90;99844.97;30611892;28;97603;-76
2023/08/24 23:39:53;;;;;;;8.60;6.73;;;;;;;19.64;64.94;99841.09;30613644;28;97326;-75
2023/08/24 23:54:53;;;;;;;8.57;6.23;;;;;;;19.60;64.79;99831.81;30611192;28;116918;-71
